sensor_id;sensor_type;location;lat;lon;timestamp;pressure;altitude;pressure_sealevel;temperature;humidity
12594;BME280;6362;50.208;9.182;2023-06-14T00:00:11;99532.03;;;16.68;44.61
12594;BME280;6362;50.208;9.182;2023-06-14T00:02:38;99530.56;;;16.60;44.98
12594;BME280;6362;50.208;9.182;2023-06-14T00:05:05;99540.41;;;16.54;45.36
12594;BME280;6362;50.208;9.182;2023-06-14T00:07:35;99536.41;;;16.45;45.66
12594;BME280;6362;50.208;9.182;2023-06-14T00:10:02;99526.91;;;16.41;45.93
12594;BME280;6362;50.208;9.182;2023-06-14T00:12:29;99530.69;;;16.34;45.61
12594;BME280;6362;50.208;9.182;2023-06-14T00:14:55;99525.44;;;16.34;46.01
12594;BME280;6362;50.208;9.182;2023-06-14T00:17:20;99528.16;;;16.31;45.27
12594;BME280;6362;50.208;9.182;2023-06-14T00:19:46;99527.44;;;16.27;46.26
12594;BME280;6362;50.208;9.182;2023-06-14T00:22:11;99525.00;;;16.23;46.29
12594;BME280;6362;50.208;9.182;2023-06-14T00:24:37;99531.25;;;16.19;46.21
12594;BME280;6362;50.208;9.182;2023-06-14T00:27:02;99528.56;;;16.20;46.90
12594;BME280;6362;50.208;9.182;2023-06-14T00:29:28;99536.59;;;16.16;46.60
12594;BME280;6362;50.208;9.182;2023-06-14T00:31:53;99533.19;;;16.14;46.16
12594;BME280;6362;50.208;9.182;2023-06-14T00:34:19;99541.97;;;16.13;46.26
12594;BME280;6362;50.208;9.182;2023-06-14T00:36:44;99546.44;;;16.10;47.94
12594;BME280;6362;50.208;9.182;2023-06-14T00:39:09;99538.75;;;16.04;46.78
12594;BME280;6362;50.208;9.182;2023-06-14T00:41:35;99544.13;;;16.01;46.74
12594;BME280;6362;50.208;9.182;2023-06-14T00:44:00;99540.75;;;15.98;46.81
12594;BME280;6362;50.208;9.182;2023-06-14T00:46:26;99540.25;;;15.88;47.13
12594;BME280;6362;50.208;9.182;2023-06-14T00:48:52;99534.19;;;15.86;47.18
12594;BME280;6362;50.208;9.182;2023-06-14T00:51:17;99526.53;;;15.80;47.18
12594;BME280;6362;50.208;9.182;2023-06-14T00:53:44;99535.19;;;15.82;47.11
12594;BME280;6362;50.208;9.182;2023-06-14T00:56:13;99536.31;;;15.75;47.66
12594;BME280;6362;50.208;9.182;2023-06-14T00:58:40;99538.16;;;15.73;47.59
12594;BME280;6362;50.208;9.182;2023-06-14T01:01:06;99543.56;;;15.68;48.15
12594;BME280;6362;50.208;9.182;2023-06-14T01:03:31;99548.09;;;15.63;48.03
12594;BME280;6362;50.208;9.182;2023-06-14T01:06:31;99547.16;;;15.66;47.53
12594;BME280;6362;50.208;9.182;2023-06-14T01:09:15;99546.41;;;15.61;48.00
12594;BME280;6362;50.208;9.182;2023-06-14T01:14:28;99540.47;;;15.55;48.08
12594;BME280;6362;50.208;9.182;2023-06-14T01:16:56;99538.75;;;15.54;48.88
12594;BME280;6362;50.208;9.182;2023-06-14T01:19:22;99536.31;;;15.48;48.72
12594;BME280;6362;50.208;9.182;2023-06-14T01:21:50;99536.25;;;15.51;48.34
12594;BME280;6362;50.208;9.182;2023-06-14T01:24:16;99534.75;;;15.44;47.94
12594;BME280;6362;50.208;9.182;2023-06-14T01:26:45;99530.34;;;15.45;48.42
12594;BME280;6362;50.208;9.182;2023-06-14T01:29:13;99527.63;;;15.48;48.55
12594;BME280;6362;50.208;9.182;2023-06-14T01:31:43;99535.44;;;15.49;47.88
12594;BME280;6362;50.208;9.182;2023-06-14T01:34:09;99537.19;;;15.49;48.02
12594;BME280;6362;50.208;9.182;2023-06-14T01:36:36;99527.69;;;15.46;48.23
12594;BME280;6362;50.208;9.182;2023-06-14T01:39:04;99531.41;;;15.39;48.02
12594;BME280;6362;50.208;9.182;2023-06-14T01:41:31;99529.59;;;15.41;47.78
12594;BME280;6362;50.208;9.182;2023-06-14T01:43:57;99529.53;;;15.43;48.35
12594;BME280;6362;50.208;9.182;2023-06-14T01:46:23;99529.59;;;15.41;48.00
12594;BME280;6362;50.208;9.182;2023-06-14T01:48:49;99524.50;;;15.37;50.01
12594;BME280;6362;50.208;9.182;2023-06-14T01:51:15;99528.03;;;15.36;49.65
12594;BME280;6362;50.208;9.182;2023-06-14T01:53:40;99528.19;;;15.31;48.30
12594;BME280;6362;50.208;9.182;2023-06-14T01:56:06;99518.69;;;15.28;48.78
12594;BME280;6362;50.208;9.182;2023-06-14T01:58:31;99532.63;;;15.29;48.63
12594;BME280;6362;50.208;9.182;2023-06-14T02:00:57;99526.69;;;15.24;48.67
12594;BME280;6362;50.208;9.182;2023-06-14T02:03:23;99529.16;;;15.28;48.74
12594;BME280;6362;50.208;9.182;2023-06-14T02:05:49;99528.50;;;15.22;48.60
12594;BME280;6362;50.208;9.182;2023-06-14T02:08:14;99532.91;;;15.20;48.87
12594;BME280;6362;50.208;9.182;2023-06-14T02:10:40;99526.13;;;15.14;49.01
12594;BME280;6362;50.208;9.182;2023-06-14T02:13:05;99531.34;;;15.16;49.22
12594;BME280;6362;50.208;9.182;2023-06-14T02:15:30;99528.88;;;15.10;49.92
12594;BME280;6362;50.208;9.182;2023-06-14T02:17:59;99539.34;;;15.11;49.06
12594;BME280;6362;50.208;9.182;2023-06-14T02:20:25;99532.47;;;15.07;49.55
12594;BME280;6362;50.208;9.182;2023-06-14T02:22:50;99536.94;;;15.03;50.21
12594;BME280;6362;50.208;9.182;2023-06-14T02:25:16;99542.31;;;14.99;50.16
12594;BME280;6362;50.208;9.182;2023-06-14T02:27:41;99544.09;;;14.98;49.99
12594;BME280;6362;50.208;9.182;2023-06-14T02:30:07;99546.00;;;14.93;49.97
12594;BME280;6362;50.208;9.182;2023-06-14T02:32:33;99546.00;;;14.93;49.80
12594;BME280;6362;50.208;9.182;2023-06-14T02:35:01;99550.53;;;14.88;50.03
12594;BME280;6362;50.208;9.182;2023-06-14T02:37:27;99550.50;;;14.90;50.33
12594;BME280;6362;50.208;9.182;2023-06-14T02:39:52;99550.53;;;14.88;50.35
12594;BME280;6362;50.208;9.182;2023-06-14T02:42:18;99553.25;;;14.85;50.65
12594;BME280;6362;50.208;9.182;2023-06-14T02:44:43;99548.25;;;14.77;51.22
12594;BME280;6362;50.208;9.182;2023-06-14T02:47:10;99558.88;;;14.73;51.73
12594;BME280;6362;50.208;9.182;2023-06-14T02:49:36;99554.38;;;14.76;50.52
12594;BME280;6362;50.208;9.182;2023-06-14T02:52:01;99554.53;;;14.72;51.54
12594;BME280;6362;50.208;9.182;2023-06-14T02:54:28;99561.44;;;14.74;51.19
12594;BME280;6362;50.208;9.182;2023-06-14T02:56:53;99560.50;;;14.75;50.77
12594;BME280;6362;50.208;9.182;2023-06-14T02:59:18;99563.38;;;14.68;51.31
12594;BME280;6362;50.208;9.182;2023-06-14T03:01:44;99561.66;;;14.67;51.21
12594;BME280;6362;50.208;9.182;2023-06-14T03:04:10;99558.22;;;14.65;52.15
12594;BME280;6362;50.208;9.182;2023-06-14T03:06:36;99558.19;;;14.66;51.92
12594;BME280;6362;50.208;9.182;2023-06-14T03:09:02;99567.88;;;14.63;51.67
12594;BME280;6362;50.208;9.182;2023-06-14T03:11:32;99570.81;;;14.52;52.04
12594;BME280;6362;50.208;9.182;2023-06-14T03:13:57;99570.81;;;14.52;51.90
12594;BME280;6362;50.208;9.182;2023-06-14T03:16:23;99570.69;;;14.57;51.50
12594;BME280;6362;50.208;9.182;2023-06-14T03:18:52;99575.28;;;14.48;54.17
12594;BME280;6362;50.208;9.182;2023-06-14T03:21:19;99574.44;;;14.46;51.96
12594;BME280;6362;50.208;9.182;2023-06-14T03:23:45;99573.72;;;14.41;51.64
12594;BME280;6362;50.208;9.182;2023-06-14T03:26:11;99585.88;;;14.42;52.84
12594;BME280;6362;50.208;9.182;2023-06-14T03:28:46;99586.19;;;14.33;52.54
12594;BME280;6362;50.208;9.182;2023-06-14T03:31:12;99586.13;;;14.35;52.71
12594;BME280;6362;50.208;9.182;2023-06-14T03:33:39;99588.75;;;14.35;52.83
12594;BME280;6362;50.208;9.182;2023-06-14T03:36:05;99587.16;;;14.29;52.78
12594;BME280;6362;50.208;9.182;2023-06-14T03:38:30;99591.34;;;14.35;53.34
12594;BME280;6362;50.208;9.182;2023-06-14T03:40:56;99593.06;;;14.36;52.28
12594;BME280;6362;50.208;9.182;2023-06-14T03:43:21;99593.97;;;14.35;52.79
12594;BME280;6362;50.208;9.182;2023-06-14T03:45:47;99594.88;;;14.34;52.50
12594;BME280;6362;50.208;9.182;2023-06-14T03:48:12;99596.59;;;14.35;53.15
12594;BME280;6362;50.208;9.182;2023-06-14T03:50:38;99599.19;;;14.35;52.81
12594;BME280;6362;50.208;9.182;2023-06-14T03:53:04;99613.09;;;14.37;52.80
12594;BME280;6362;50.208;9.182;2023-06-14T03:55:29;99618.31;;;14.38;52.96
12594;BME280;6362;50.208;9.182;2023-06-14T03:57:57;99610.66;;;14.31;53.07
12594;BME280;6362;50.208;9.182;2023-06-14T04:00:22;99620.13;;;14.35;54.86
12594;BME280;6362;50.208;9.182;2023-06-14T04:02:48;99621.78;;;14.39;55.26
12594;BME280;6362;50.208;9.182;2023-06-14T04:05:14;99622.53;;;14.42;55.96
12594;BME280;6362;50.208;9.182;2023-06-14T04:07:42;99627.47;;;14.53;56.65
12594;BME280;6362;50.208;9.182;2023-06-14T04:10:10;99626.38;;;14.62;54.62
12594;BME280;6362;50.208;9.182;2023-06-14T04:12:36;99627.22;;;14.62;54.67
12594;BME280;6362;50.208;9.182;2023-06-14T04:15:01;99631.31;;;14.71;55.22
12594;BME280;6362;50.208;9.182;2023-06-14T04:17:27;99631.25;;;14.74;54.39
12594;BME280;6362;50.208;9.182;2023-06-14T04:19:53;99632.03;;;14.77;56.04
12594;BME280;6362;50.208;9.182;2023-06-14T04:22:18;99635.38;;;14.83;53.76
12594;BME280;6362;50.208;9.182;2023-06-14T04:24:44;99643.44;;;14.75;53.54
12594;BME280;6362;50.208;9.182;2023-06-14T04:27:10;99642.38;;;14.81;53.70
12594;BME280;6362;50.208;9.182;2023-06-14T04:29:35;99638.84;;;14.83;53.90
12594;BME280;6362;50.208;9.182;2023-06-14T04:32:01;99646.19;;;15.00;55.11
12594;BME280;6362;50.208;9.182;2023-06-14T04:34:27;99647.91;;;15.01;55.15
12594;BME280;6362;50.208;9.182;2023-06-14T04:36:55;99643.19;;;15.12;54.68
12594;BME280;6362;50.208;9.182;2023-06-14T04:39:22;99653.41;;;15.21;55.70
12594;BME280;6362;50.208;9.182;2023-06-14T04:41:48;99650.53;;;15.29;54.28
12594;BME280;6362;50.208;9.182;2023-06-14T04:44:18;99644.91;;;15.41;54.98
12594;BME280;6362;50.208;9.182;2023-06-14T04:46:45;99654.25;;;15.22;53.18
12594;BME280;6362;50.208;9.182;2023-06-14T04:49:15;99655.91;;;15.24;53.46
12594;BME280;6362;50.208;9.182;2023-06-14T04:51:45;99653.94;;;15.31;53.46
12594;BME280;6362;50.208;9.182;2023-06-14T04:54:11;99657.28;;;15.36;53.99
12594;BME280;6362;50.208;9.182;2023-06-14T04:56:42;99657.41;;;15.33;54.06
12594;BME280;6362;50.208;9.182;2023-06-14T04:59:09;99659.91;;;15.36;53.33
12594;BME280;6362;50.208;9.182;2023-06-14T05:01:35;99674.50;;;15.45;52.90
12594;BME280;6362;50.208;9.182;2023-06-14T05:04:00;99670.75;;;15.52;53.40
12594;BME280;6362;50.208;9.182;2023-06-14T05:06:26;99670.03;;;15.75;53.09
12594;BME280;6362;50.208;9.182;2023-06-14T05:08:53;99668.00;;;15.84;51.89
12594;BME280;6362;50.208;9.182;2023-06-14T05:11:18;99673.16;;;15.86;53.38
12594;BME280;6362;50.208;9.182;2023-06-14T05:13:44;99667.47;;;16.00;51.76
12594;BME280;6362;50.208;9.182;2023-06-14T05:16:10;99661.09;;;16.07;52.35
12594;BME280;6362;50.208;9.182;2023-06-14T05:18:36;99666.06;;;16.16;51.69
12594;BME280;6362;50.208;9.182;2023-06-14T05:21:02;99664.97;;;16.22;51.58
12594;BME280;6362;50.208;9.182;2023-06-14T05:23:29;99662.56;;;16.41;52.12
12594;BME280;6362;50.208;9.182;2023-06-14T05:25:55;99663.88;;;16.52;51.22
12594;BME280;6362;50.208;9.182;2023-06-14T05:28:22;99659.25;;;16.59;51.10
12594;BME280;6362;50.208;9.182;2023-06-14T05:30:47;99663.81;;;16.79;50.63
12594;BME280;6362;50.208;9.182;2023-06-14T05:33:13;99663.66;;;16.83;50.48
12594;BME280;6362;50.208;9.182;2023-06-14T05:35:38;99665.59;;;16.78;50.06
12594;BME280;6362;50.208;9.182;2023-06-14T05:38:03;99664.75;;;16.76;50.42
12594;BME280;6362;50.208;9.182;2023-06-14T05:40:29;99668.84;;;16.85;50.12
12594;BME280;6362;50.208;9.182;2023-06-14T05:42:54;99670.59;;;16.84;49.49
12594;BME280;6362;50.208;9.182;2023-06-14T05:45:20;99678.78;;;16.77;50.40
12594;BME280;6362;50.208;9.182;2023-06-14T05:47:45;99677.91;;;16.76;50.61
12594;BME280;6362;50.208;9.182;2023-06-14T05:50:11;99685.44;;;16.85;50.86
12594;BME280;6362;50.208;9.182;2023-06-14T05:52:36;99687.56;;;16.99;49.63
12594;BME280;6362;50.208;9.182;2023-06-14T05:55:03;99693.38;;;17.07;49.47
12594;BME280;6362;50.208;9.182;2023-06-14T05:57:28;99690.28;;;17.20;49.38
12594;BME280;6362;50.208;9.182;2023-06-14T05:59:54;99694.34;;;17.28;49.56
12594;BME280;6362;50.208;9.182;2023-06-14T06:02:20;99685.34;;;17.34;49.02
12594;BME280;6362;50.208;9.182;2023-06-14T06:04:45;99686.66;;;17.46;49.02
12594;BME280;6362;50.208;9.182;2023-06-14T06:07:11;99683.53;;;17.58;48.64
12594;BME280;6362;50.208;9.182;2023-06-14T06:09:36;99690.66;;;17.54;49.04
12594;BME280;6362;50.208;9.182;2023-06-14T06:12:02;99688.72;;;17.81;48.22
12594;BME280;6362;50.208;9.182;2023-06-14T06:14:27;99693.03;;;17.84;47.67
12594;BME280;6362;50.208;9.182;2023-06-14T06:16:54;99688.28;;;17.92;47.58
12594;BME280;6362;50.208;9.182;2023-06-14T06:19:20;99693.38;;;17.97;48.36
12594;BME280;6362;50.208;9.182;2023-06-14T06:21:45;99696.53;;;18.05;48.45
12594;BME280;6362;50.208;9.182;2023-06-14T06:24:11;99696.47;;;18.06;46.93
12594;BME280;6362;50.208;9.182;2023-06-14T06:26:36;99707.59;;;18.13;47.48
12594;BME280;6362;50.208;9.182;2023-06-14T06:29:02;99699.75;;;18.32;46.02
12594;BME280;6362;50.208;9.182;2023-06-14T06:31:27;99695.25;;;17.93;47.01
12594;BME280;6362;50.208;9.182;2023-06-14T06:33:54;99694.25;;;18.17;47.56
12594;BME280;6362;50.208;9.182;2023-06-14T06:36:20;99697.47;;;18.24;46.23
12594;BME280;6362;50.208;9.182;2023-06-14T06:38:47;99702.53;;;18.29;45.97
12594;BME280;6362;50.208;9.182;2023-06-14T06:41:12;99700.88;;;18.26;46.51
12594;BME280;6362;50.208;9.182;2023-06-14T06:43:38;99700.94;;;18.25;46.70
12594;BME280;6362;50.208;9.182;2023-06-14T06:46:03;99704.97;;;18.33;45.93
12594;BME280;6362;50.208;9.182;2023-06-14T06:48:28;99703.72;;;18.42;46.19
12594;BME280;6362;50.208;9.182;2023-06-14T06:50:54;99704.47;;;18.64;45.73
12594;BME280;6362;50.208;9.182;2023-06-14T06:53:20;99708.25;;;18.59;45.41
12594;BME280;6362;50.208;9.182;2023-06-14T06:55:45;99710.56;;;18.66;45.71
12594;BME280;6362;50.208;9.182;2023-06-14T06:58:12;99713.22;;;18.65;45.34
12594;BME280;6362;50.208;9.182;2023-06-14T07:00:37;99718.34;;;18.69;45.40
12594;BME280;6362;50.208;9.182;2023-06-14T07:03:03;99718.72;;;18.81;45.31
12594;BME280;6362;50.208;9.182;2023-06-14T07:05:29;99717.66;;;18.85;44.54
12594;BME280;6362;50.208;9.182;2023-06-14T07:07:55;99720.19;;;18.88;44.93
12594;BME280;6362;50.208;9.182;2023-06-14T07:10:20;99722.53;;;18.94;45.18
12594;BME280;6362;50.208;9.182;2023-06-14T07:12:46;99724.94;;;18.98;45.28
12594;BME280;6362;50.208;9.182;2023-06-14T07:15:12;99732.22;;;19.12;44.23
12594;BME280;6362;50.208;9.182;2023-06-14T07:17:37;99728.94;;;19.07;44.75
12594;BME280;6362;50.208;9.182;2023-06-14T07:20:03;99726.47;;;19.23;44.09
12594;BME280;6362;50.208;9.182;2023-06-14T07:22:41;99731.94;;;19.37;43.44
12594;BME280;6362;50.208;9.182;2023-06-14T07:25:10;99729.88;;;19.44;44.30
12594;BME280;6362;50.208;9.182;2023-06-14T07:27:43;99728.59;;;19.71;44.14
12594;BME280;6362;50.208;9.182;2023-06-14T07:30:09;99724.66;;;19.80;43.72
12594;BME280;6362;50.208;9.182;2023-06-14T07:32:36;99724.88;;;19.93;42.83
12594;BME280;6362;50.208;9.182;2023-06-14T07:35:01;99724.13;;;20.08;42.39
12594;BME280;6362;50.208;9.182;2023-06-14T07:37:27;99719.78;;;20.24;42.52
12594;BME280;6362;50.208;9.182;2023-06-14T07:39:52;99725.59;;;19.96;42.28
12594;BME280;6362;50.208;9.182;2023-06-14T07:42:17;99716.44;;;20.21;42.38
12594;BME280;6362;50.208;9.182;2023-06-14T07:44:43;99716.38;;;20.05;42.90
12594;BME280;6362;50.208;9.182;2023-06-14T07:47:08;99710.25;;;20.22;42.78
12594;BME280;6362;50.208;9.182;2023-06-14T07:49:33;99709.63;;;20.34;43.22
12594;BME280;6362;50.208;9.182;2023-06-14T07:51:59;99720.81;;;20.56;41.71
12594;BME280;6362;50.208;9.182;2023-06-14T07:54:24;99728.84;;;20.55;42.10
12594;BME280;6362;50.208;9.182;2023-06-14T07:56:52;99731.03;;;20.80;41.24
12594;BME280;6362;50.208;9.182;2023-06-14T07:59:17;99722.19;;;20.64;40.33
12594;BME280;6362;50.208;9.182;2023-06-14T08:01:43;99727.22;;;20.86;41.12
12594;BME280;6362;50.208;9.182;2023-06-14T08:04:13;99736.59;;;20.91;41.08
12594;BME280;6362;50.208;9.182;2023-06-14T08:06:39;99726.78;;;21.11;41.24
12594;BME280;6362;50.208;9.182;2023-06-14T08:09:09;99731.78;;;21.32;41.26
12594;BME280;6362;50.208;9.182;2023-06-14T08:11:35;99733.28;;;21.37;41.18
12594;BME280;6362;50.208;9.182;2023-06-14T08:14:00;99730.66;;;20.88;41.49
12594;BME280;6362;50.208;9.182;2023-06-14T08:16:26;99730.94;;;21.15;41.48
12594;BME280;6362;50.208;9.182;2023-06-14T08:18:51;99735.81;;;21.22;40.75
12594;BME280;6362;50.208;9.182;2023-06-14T08:21:16;99731.34;;;21.40;40.54
12594;BME280;6362;50.208;9.182;2023-06-14T08:23:43;99741.94;;;21.56;40.06
12594;BME280;6362;50.208;9.182;2023-06-14T08:26:09;99730.06;;;21.63;40.07
12594;BME280;6362;50.208;9.182;2023-06-14T08:28:35;99732.00;;;21.59;40.57
12594;BME280;6362;50.208;9.182;2023-06-14T08:31:00;99729.53;;;21.72;40.53
12594;BME280;6362;50.208;9.182;2023-06-14T08:33:26;99731.41;;;21.86;39.62
12594;BME280;6362;50.208;9.182;2023-06-14T08:35:52;99738.56;;;22.00;39.71
12594;BME280;6362;50.208;9.182;2023-06-14T08:38:17;99732.41;;;21.99;39.11
12594;BME280;6362;50.208;9.182;2023-06-14T08:40:45;99733.91;;;22.03;38.39
12594;BME280;6362;50.208;9.182;2023-06-14T08:43:13;99720.72;;;22.33;38.45
12594;BME280;6362;50.208;9.182;2023-06-14T08:45:39;99717.28;;;22.31;38.04
12594;BME280;6362;50.208;9.182;2023-06-14T08:48:06;99726.41;;;22.42;37.83
12594;BME280;6362;50.208;9.182;2023-06-14T08:50:32;99726.41;;;22.42;38.28
12594;BME280;6362;50.208;9.182;2023-06-14T08:53:01;99729.19;;;22.54;38.64
12594;BME280;6362;50.208;9.182;2023-06-14T08:55:28;99730.97;;;22.54;37.98
12594;BME280;6362;50.208;9.182;2023-06-14T08:57:58;99734.13;;;22.75;36.39
12594;BME280;6362;50.208;9.182;2023-06-14T09:00:27;99734.19;;;22.59;37.21
12594;BME280;6362;50.208;9.182;2023-06-14T09:02:53;99728.28;;;22.84;36.20
12594;BME280;6362;50.208;9.182;2023-06-14T09:05:26;99731.03;;;22.82;36.44
12594;BME280;6362;50.208;9.182;2023-06-14T09:07:52;99732.25;;;23.19;37.17
12594;BME280;6362;50.208;9.182;2023-06-14T09:10:20;99729.09;;;23.41;35.42
12594;BME280;6362;50.208;9.182;2023-06-14T09:12:46;99728.75;;;23.75;34.92
12594;BME280;6362;50.208;9.182;2023-06-14T09:15:12;99730.69;;;24.12;34.33
12594;BME280;6362;50.208;9.182;2023-06-14T09:17:39;99736.84;;;24.13;35.49
12594;BME280;6362;50.208;9.182;2023-06-14T09:20:06;99735.13;;;23.99;33.53
12594;BME280;6362;50.208;9.182;2023-06-14T09:22:34;99735.72;;;24.30;31.96
12594;BME280;6362;50.208;9.182;2023-06-14T09:25:00;99739.75;;;24.22;31.73
12594;BME280;6362;50.208;9.182;2023-06-14T09:27:27;99743.25;;;24.10;31.83
12594;BME280;6362;50.208;9.182;2023-06-14T09:29:53;99739.41;;;23.87;33.75
12594;BME280;6362;50.208;9.182;2023-06-14T09:32:18;99751.91;;;24.27;32.90
12594;BME280;6362;50.208;9.182;2023-06-14T09:34:45;99749.03;;;24.30;32.75
12594;BME280;6362;50.208;9.182;2023-06-14T09:37:11;99753.03;;;24.62;31.84
12594;BME280;6362;50.208;9.182;2023-06-14T09:39:49;99753.03;;;24.62;31.83
12594;BME280;6362;50.208;9.182;2023-06-14T09:42:18;99762.09;;;24.72;32.09
12594;BME280;6362;50.208;9.182;2023-06-14T09:44:47;99755.19;;;24.83;30.93
12594;BME280;6362;50.208;9.182;2023-06-14T09:47:15;99760.72;;;25.05;31.05
12594;BME280;6362;50.208;9.182;2023-06-14T09:49:40;99753.88;;;24.50;31.46
12594;BME280;6362;50.208;9.182;2023-06-14T09:52:06;99761.13;;;24.61;31.24
12594;BME280;6362;50.208;9.182;2023-06-14T09:54:36;99755.38;;;24.92;30.52
12594;BME280;6362;50.208;9.182;2023-06-14T09:57:07;99757.09;;;24.81;31.47
12594;BME280;6362;50.208;9.182;2023-06-14T09:59:34;99763.88;;;24.97;30.44
12594;BME280;6362;50.208;9.182;2023-06-14T10:02:07;99760.06;;;24.89;29.65
12594;BME280;6362;50.208;9.182;2023-06-14T10:04:34;99768.25;;;24.98;31.32
12594;BME280;6362;50.208;9.182;2023-06-14T10:07:00;99760.50;;;25.21;30.90
12594;BME280;6362;50.208;9.182;2023-06-14T10:09:28;99757.75;;;25.22;30.50
12594;BME280;6362;50.208;9.182;2023-06-14T10:11:55;99756.22;;;24.93;30.03
12594;BME280;6362;50.208;9.182;2023-06-14T10:14:21;99759.78;;;25.06;31.13
12594;BME280;6362;50.208;9.182;2023-06-14T10:17:42;99751.69;;;24.82;30.48
12594;BME280;6362;50.208;9.182;2023-06-14T10:19:55;99762.75;;;25.27;31.44
12594;BME280;6362;50.208;9.182;2023-06-14T10:22:32;99756.91;;;25.95;29.34
12594;BME280;6362;50.208;9.182;2023-06-14T10:25:00;99761.88;;;26.24;30.20
12594;BME280;6362;50.208;9.182;2023-06-14T10:27:26;99756.44;;;26.49;29.56
12594;BME280;6362;50.208;9.182;2023-06-14T10:32:26;99759.19;;;27.05;27.22
12594;BME280;6362;50.208;9.182;2023-06-14T10:34:59;99760.47;;;26.77;28.44
12594;BME280;6362;50.208;9.182;2023-06-14T10:37:25;99758.88;;;26.75;28.07
12594;BME280;6362;50.208;9.182;2023-06-14T10:39:50;99761.34;;;26.89;28.33
12594;BME280;6362;50.208;9.182;2023-06-14T10:42:16;99766.84;;;26.52;28.40
12594;BME280;6362;50.208;9.182;2023-06-14T10:44:49;99774.41;;;25.87;29.17
12594;BME280;6362;50.208;9.182;2023-06-14T10:47:31;99768.69;;;26.28;29.63
12594;BME280;6362;50.208;9.182;2023-06-14T10:52:31;99747.63;;;26.82;28.82
12594;BME280;6362;50.208;9.182;2023-06-14T10:55:05;99754.78;;;26.71;29.88
12594;BME280;6362;50.208;9.182;2023-06-14T10:57:33;99750.22;;;27.18;28.99
12594;BME280;6362;50.208;9.182;2023-06-14T10:59:59;99753.50;;;27.44;28.04
12594;BME280;6362;50.208;9.182;2023-06-14T11:05:23;99768.19;;;27.27;27.12
12594;BME280;6362;50.208;9.182;2023-06-14T11:11:00;99761.06;;;26.35;28.51
12594;BME280;6362;50.208;9.182;2023-06-14T11:13:30;99759.78;;;26.16;29.44
12594;BME280;6362;50.208;9.182;2023-06-14T11:15:56;99765.56;;;25.37;30.07
12594;BME280;6362;50.208;9.182;2023-06-14T11:18:22;99763.81;;;25.12;29.65
12594;BME280;6362;50.208;9.182;2023-06-14T11:20:54;99760.28;;;24.73;30.64
12594;BME280;6362;50.208;9.182;2023-06-14T11:23:21;99754.22;;;24.84;30.44
12594;BME280;6362;50.208;9.182;2023-06-14T11:25:50;99756.22;;;24.80;32.49
12594;BME280;6362;50.208;9.182;2023-06-14T11:28:16;99750.81;;;24.29;31.99
12594;BME280;6362;50.208;9.182;2023-06-14T11:30:42;99759.50;;;24.18;31.07
12594;BME280;6362;50.208;9.182;2023-06-14T11:33:09;99747.78;;;23.81;31.98
12594;BME280;6362;50.208;9.182;2023-06-14T11:35:36;99759.09;;;23.70;32.72
12594;BME280;6362;50.208;9.182;2023-06-14T11:38:02;99739.22;;;24.30;32.88
12594;BME280;6362;50.208;9.182;2023-06-14T11:40:27;99739.84;;;24.61;30.48
12594;BME280;6362;50.208;9.182;2023-06-14T11:43:00;99742.94;;;24.80;28.78
12594;BME280;6362;50.208;9.182;2023-06-14T11:45:27;99744.72;;;25.31;29.52
12594;BME280;6362;50.208;9.182;2023-06-14T11:47:55;99739.16;;;26.07;26.81
12594;BME280;6362;50.208;9.182;2023-06-14T11:50:22;99729.44;;;26.99;26.40
12594;BME280;6362;50.208;9.182;2023-06-14T11:55:20;99725.34;;;27.17;24.31
12594;BME280;6362;50.208;9.182;2023-06-14T11:57:46;99719.31;;;26.57;25.00
12594;BME280;6362;50.208;9.182;2023-06-14T12:00:12;99741.28;;;26.50;26.70
12594;BME280;6362;50.208;9.182;2023-06-14T12:02:38;99733.19;;;26.85;27.38
12594;BME280;6362;50.208;9.182;2023-06-14T12:05:07;99739.38;;;27.42;25.77
12594;BME280;6362;50.208;9.182;2023-06-14T12:07:36;99738.16;;;27.57;24.46
12594;BME280;6362;50.208;9.182;2023-06-14T12:12:28;99733.47;;;27.04;24.75
12594;BME280;6362;50.208;9.182;2023-06-14T12:14:57;99743.31;;;27.15;25.14
12594;BME280;6362;50.208;9.182;2023-06-14T12:17:23;99734.41;;;27.71;24.62
12594;BME280;6362;50.208;9.182;2023-06-14T12:19:49;99732.00;;;28.00;22.87
12594;BME280;6362;50.208;9.182;2023-06-14T12:22:16;99721.03;;;28.35;22.66
12594;BME280;6362;50.208;9.182;2023-06-14T12:24:43;99726.16;;;28.89;22.56
12594;BME280;6362;50.208;9.182;2023-06-14T12:27:09;99730.53;;;28.90;22.94
12594;BME280;6362;50.208;9.182;2023-06-14T12:29:37;99728.28;;;29.16;23.23
12594;BME280;6362;50.208;9.182;2023-06-14T12:32:02;99735.03;;;28.90;24.33
12594;BME280;6362;50.208;9.182;2023-06-14T12:34:27;99738.00;;;28.13;23.60
12594;BME280;6362;50.208;9.182;2023-06-14T12:36:54;99727.00;;;27.52;23.66
12594;BME280;6362;50.208;9.182;2023-06-14T12:39:20;99732.69;;;26.80;26.69
12594;BME280;6362;50.208;9.182;2023-06-14T12:41:46;99733.03;;;26.64;26.26
12594;BME280;6362;50.208;9.182;2023-06-14T12:44:12;99728.56;;;26.98;26.84
12594;BME280;6362;50.208;9.182;2023-06-14T12:46:39;99727.69;;;27.65;26.21
12594;BME280;6362;50.208;9.182;2023-06-14T12:49:05;99728.66;;;27.64;25.98
12594;BME280;6362;50.208;9.182;2023-06-14T12:51:31;99729.22;;;27.13;27.46
12594;BME280;6362;50.208;9.182;2023-06-14T12:53:57;99733.19;;;26.96;28.54
12594;BME280;6362;50.208;9.182;2023-06-14T12:56:22;99735.00;;;26.27;28.14
12594;BME280;6362;50.208;9.182;2023-06-14T12:58:48;99721.41;;;25.95;28.97
12594;BME280;6362;50.208;9.182;2023-06-14T13:01:13;99727.91;;;25.67;30.49
12594;BME280;6362;50.208;9.182;2023-06-14T13:03:39;99732.72;;;25.62;30.41
12594;BME280;6362;50.208;9.182;2023-06-14T13:06:04;99739.16;;;25.46;31.30
12594;BME280;6362;50.208;9.182;2023-06-14T13:08:30;99751.25;;;25.14;31.22
12594;BME280;6362;50.208;9.182;2023-06-14T13:10:56;99735.38;;;24.99;31.21
12594;BME280;6362;50.208;9.182;2023-06-14T13:13:21;99745.25;;;24.97;32.06
12594;BME280;6362;50.208;9.182;2023-06-14T13:15:47;99738.88;;;24.87;31.25
12594;BME280;6362;50.208;9.182;2023-06-14T13:18:14;99738.03;;;24.87;31.11
12594;BME280;6362;50.208;9.182;2023-06-14T13:20:39;99733.25;;;25.17;30.70
12594;BME280;6362;50.208;9.182;2023-06-14T13:23:05;99732.91;;;25.35;30.85
12594;BME280;6362;50.208;9.182;2023-06-14T13:25:33;99733.19;;;25.43;32.06